createdAt,value
2022-11-24T00:14:35.932Z,84
2022-11-24T00:24:38.314Z,84
2022-11-24T00:34:40.184Z,84
2022-11-24T00:44:42.626Z,84
2022-11-24T00:54:45.152Z,83
2022-11-24T01:14:49.658Z,83
2022-11-24T01:34:53.327Z,83
2022-11-24T01:44:55.979Z,83
2022-11-24T01:54:58.168Z,83
2022-11-24T02:35:05.855Z,83
2022-11-24T02:45:08.293Z,83
2022-11-24T02:55:10.546Z,83
2022-11-24T03:05:12.605Z,83
2022-11-24T03:15:14.909Z,83
2022-11-24T03:35:19.512Z,83
2022-11-24T03:45:44.671Z,83
2022-11-24T03:55:24.037Z,84
2022-11-24T04:05:26.282Z,84
2022-11-24T04:15:28.836Z,84
2022-11-24T04:25:30.791Z,84
2022-11-24T04:35:33.220Z,84
2022-11-24T04:45:35.505Z,83
2022-11-24T04:55:37.917Z,83
2022-11-24T05:15:42.400Z,83
2022-11-24T05:25:47.555Z,83
2022-11-24T05:35:46.883Z,84
2022-11-24T05:45:48.725Z,84
2022-11-24T05:55:51.100Z,85
2022-11-24T06:05:52.787Z,85
2022-11-24T06:15:54.932Z,85
2022-11-24T06:25:56.853Z,85
2022-11-24T06:35:59.149Z,86
2022-11-24T06:46:01.146Z,86
2022-11-24T06:56:03.455Z,86
2022-11-24T07:06:05.194Z,85
2022-11-24T07:16:07.577Z,85
2022-11-24T07:36:12.316Z,84
2022-11-24T07:46:14.283Z,84
2022-11-24T08:06:28.971Z,82
2022-11-24T08:16:20.818Z,82
2022-11-24T08:26:23.133Z,81
2022-11-24T08:36:25.009Z,81
2022-11-24T08:46:27.470Z,81
2022-11-24T08:56:29.547Z,81
2022-11-24T09:06:32.152Z,80
2022-11-24T09:16:34.401Z,80
2022-11-24T09:26:36.104Z,79
2022-11-24T09:36:38.595Z,79
2022-11-24T09:56:43.001Z,79
2022-11-24T10:06:44.736Z,79
2022-11-24T10:16:46.518Z,79
2022-11-24T10:26:49.051Z,79
2022-11-24T10:36:50.758Z,79
2022-11-24T10:56:55.027Z,78
2022-11-24T11:06:56.856Z,78
2022-11-24T11:16:58.936Z,78
2022-11-24T11:37:03.768Z,78
2022-11-24T11:47:06.242Z,78
2022-11-24T11:57:08.321Z,77
2022-11-24T12:17:12.739Z,76
2022-11-24T12:27:19.446Z,76
2022-11-24T12:37:16.677Z,76
2022-11-24T12:57:21.242Z,75
2022-11-24T13:07:23.220Z,74
2022-11-24T13:17:39.536Z,74
2022-11-24T13:27:26.908Z,74
2022-11-24T13:47:30.554Z,74
2022-11-24T13:57:32.936Z,74
2022-11-24T14:07:35.054Z,74
2022-11-24T14:17:37.246Z,74
2022-11-24T14:27:38.927Z,74
2022-11-24T14:37:40.709Z,74
2022-11-24T14:47:42.451Z,75
2022-11-24T14:48:06.355Z,75
2022-11-24T15:07:54.069Z,76
2022-11-24T15:38:00.315Z,77
2022-11-24T15:58:04.400Z,78
2022-11-24T16:18:08.178Z,79
2022-11-24T16:38:12.840Z,79
2022-11-24T16:58:16.490Z,80
2022-11-24T17:08:19.008Z,80
2022-11-24T17:18:25.356Z,81
2022-11-24T17:28:22.876Z,81
2022-11-24T18:18:39.299Z,82
2022-11-24T18:58:43.467Z,83
2022-11-24T19:28:49.843Z,83
2022-11-24T19:38:52.369Z,83
2022-11-24T19:48:54.067Z,83
2022-11-24T20:29:02.077Z,83
2022-11-24T20:39:04.233Z,83
2022-11-24T20:59:08.311Z,83
2022-11-24T21:09:10.786Z,83
2022-11-24T21:59:20.930Z,83
2022-11-24T22:39:29.295Z,84
2022-11-24T22:49:31.879Z,83
2022-11-24T23:09:36.661Z,84
2022-11-24T23:19:38.392Z,84
2022-11-24T23:29:40.583Z,84
2022-11-24T23:39:42.557Z,84
2022-11-24T23:59:46.409Z,84
